^^
Grace C. Lehan Memorial Weather Station Historical Data
Daily Summary for January 30, 2021 Units:  English    Metric   Both
Daily Weekly Monthly Yearly
  High: Low: Average:
Temperature: 44.8 °F 39.2 °F 42.5 °F
Dew Point: 43.2 °F 37.9 °F 41.2 °F
Humidity: 97% 92% 95%
Wind Speed: 0.9mph 0mph 0mph
Wind Gust: 4mph - -
Wind- - NE
Pressure: 29.98 in 29.88 in -
Precipitation: 0.12 in    
 
 
Tabular Data for January 30, 2021
Time Temperature Dew Point Pressure Wind Wind Speed Wind Gust Humidity Rainfall Rate (Hourly) solar
00:04 39.3 °F 38 °F 29.98 in Calm   4 mph 95% 0.01 in 0 W/m2
00:09 39.3 °F 38 °F 29.97 in Calm     95% 0.00 in 0 W/m2
00:14 39.3 °F 38 °F 29.97 in Calm     95% 0.00 in 0 W/m2
00:19 39.3 °F 38 °F 29.97 in NE 0.1 mph 2 mph 95% 0.00 in 0 W/m2
00:24 39.3 °F 38 °F 29.96 in Calm   2 mph 95% 0.00 in 0 W/m2
00:29 39.3 °F 38 °F 29.95 in Calm   2 mph 95% 0.01 in 0 W/m2
00:34 39.3 °F 38 °F 29.95 in Calm   2 mph 95.2% 0.01 in 0 W/m2
00:39 39.3 °F 38.3 °F 29.95 in Calm     96% 0.01 in 0 W/m2
00:44 39.3 °F 38.3 °F 29.95 in Calm     96% 0.01 in 0 W/m2
00:49 39.3 °F 38.1 °F 29.95 in Calm     95.5% 0.01 in 0 W/m2
00:50 39.3 °F 38 °F 29.95 in Calm     95% 0.01 in 0 W/m2
01:00 39.3 °F 38 °F 29.94 in Calm     95% 0.01 in 0 W/m2
01:30 39.3 °F 38 °F 29.94 in Calm   3 mph 95% 0.01 in 0 W/m2
02:00 39.2 °F 37.9 °F 29.93 in Calm     95% 0.00 in 0 W/m2
02:30 39.3 °F 38.3 °F 29.93 in Calm     96% 0.01 in 0 W/m2
03:00 39.3 °F 38.3 °F 29.93 in Calm     96% 0.01 in 0 W/m2
03:30 39.3 °F 38.3 °F 29.92 in Calm   2 mph 96% 0.01 in 0 W/m2
04:09 39.3 °F 38.3 °F 29.90 in Calm     96% 0.01 in 0 W/m2
04:14 39.3 °F 38.3 °F 29.90 in Calm     96% 0.01 in 0 W/m2
04:19 39.4 °F 38.3 °F 29.90 in Calm     96% 0.01 in 0 W/m2
04:24 39.4 °F 38.4 °F 29.90 in Calm     96% 0.01 in 0 W/m2
04:29 39.5 °F 38.4 °F 29.90 in Calm     96% 0.01 in 0 W/m2
04:34 39.5 °F 38.5 °F 29.91 in Calm     96% 0.01 in 0 W/m2
04:39 39.5 °F 38.5 °F 29.90 in Calm     96% 0.01 in 0 W/m2
04:44 39.5 °F 38.5 °F 29.91 in Calm     96% 0.01 in 0 W/m2
04:49 39.5 °F 38.5 °F 29.91 in Calm     96% 0.01 in 0 W/m2
04:54 39.5 °F 38.5 °F 29.91 in NE 0.1 mph 2 mph 96% 0.02 in 0 W/m2
04:59 39.5 °F 38.5 °F 29.91 in Calm   2 mph 96% 0.02 in 0 W/m2
05:04 39.5 °F 38.5 °F 29.90 in Calm   2 mph 96% 0.02 in 0 W/m2
05:09 39.6 °F 38.6 °F 29.90 in Calm     96% 0.01 in 0 W/m2
05:14 39.6 °F 38.6 °F 29.91 in NE 0.5 mph 3 mph 96% 0.01 in 0 W/m2
05:19 39.6 °F 38.6 °F 29.91 in Calm   3 mph 96% 0.01 in 0 W/m2
05:24 39.6 °F 38.6 °F 29.91 in Calm   3 mph 96% 0.01 in 0 W/m2
05:29 39.7 °F 38.6 °F 29.91 in Calm   3 mph 96% 0.01 in 0 W/m2
05:34 39.7 °F 38.7 °F 29.91 in Calm   3 mph 96% 0.01 in 0 W/m2
05:39 39.7 °F 38.7 °F 29.91 in Calm     96% 0.01 in 0 W/m2
05:44 39.7 °F 38.7 °F 29.91 in Calm     96% 0.01 in 0 W/m2
05:49 39.7 °F 38.7 °F 29.91 in Calm     96% 0.01 in 0 W/m2
05:54 39.7 °F 38.7 °F 29.91 in Calm     96% 0.02 in 0 W/m2
05:59 39.7 °F 38.7 °F 29.91 in Calm     96% 0.02 in 0 W/m2
06:04 39.7 °F 38.6 °F 29.91 in Calm     96% 0.02 in 0 W/m2
06:09 39.6 °F 38.6 °F 29.92 in Calm     96% 0.01 in 0 W/m2
06:14 39.6 °F 38.6 °F 29.92 in Calm     96% 0.01 in 0 W/m2
06:19 39.6 °F 38.6 °F 29.92 in Calm     96% 0.01 in 0 W/m2
06:24 39.7 °F 38.6 °F 29.92 in Calm     96% 0.01 in 0 W/m2
06:29 39.7 °F 38.6 °F 29.92 in Calm     96% 0.01 in 0 W/m2
06:34 39.7 °F 38.6 °F 29.92 in Calm     96% 0.01 in 0 W/m2
06:39 39.7 °F 38.7 °F 29.92 in Calm     96% 0.01 in 0 W/m2
06:41 39.7 °F 38.7 °F 29.92 in Calm     96% 0.01 in 0 W/m2
07:00 39.8 °F 38.8 °F 29.93 in Calm   3 mph 96% 0.02 in 0 W/m2
07:30 39.8 °F 38.8 °F 29.93 in Calm     96% 0.02 in 0 W/m2
08:09 39.9 °F 38.8 °F 29.94 in NE 0.1 mph 2 mph 96% 0.03 in 14 W/m2
08:14 39.9 °F 38.8 °F 29.94 in Calm   2 mph 96% 0.03 in 14 W/m2
08:19 39.9 °F 38.9 °F 29.94 in Calm   2 mph 96% 0.03 in 12 W/m2
08:24 40 °F 39 °F 29.95 in Calm   2 mph 96% 0.03 in 14 W/m2
08:29 40.1 °F 39 °F 29.95 in Calm   2 mph 96% 0.03 in 14 W/m2
08:34 40.1 °F 39.1 °F 29.95 in NE 0.1 mph 3 mph 96% 0.03 in 18 W/m2
08:39 40.1 °F 39.1 °F 29.95 in Calm   3 mph 96% 0.01 in 16 W/m2
08:44 40.2 °F 39.2 °F 29.95 in Calm   3 mph 96% 0.01 in 23 W/m2
08:49 40.2 °F 39.2 °F 29.95 in Calm   3 mph 96% 0.01 in 23 W/m2
08:54 40.3 °F 39.2 °F 29.96 in NE 0.5 mph 3 mph 96% 0.01 in 21 W/m2
08:59 40.3 °F 39.3 °F 29.96 in NE 0.1 mph 3 mph 96% 0.01 in 21 W/m2
09:04 40.3 °F 39.3 °F 29.95 in Calm   3 mph 96% 0.01 in 28 W/m2
09:09 40.4 °F 39.3 °F 29.95 in Calm     96% 0.01 in 28 W/m2
09:14 40.4 °F 39.3 °F 29.95 in Calm     96% 0.01 in 26 W/m2
09:19 40.4 °F 39.4 °F 29.96 in Calm     96% 0.01 in 26 W/m2
09:24 40.5 °F 39.4 °F 29.96 in Calm     96% 0.01 in 23 W/m2
09:29 40.5 °F 39.5 °F 29.95 in Calm     96% 0.01 in 25 W/m2
09:34 40.5 °F 39.5 °F 29.95 in Calm     96% 0.01 in 28 W/m2
09:39 40.5 °F 39.5 °F 29.96 in Calm     96% 0.01 in 32 W/m2
09:44 40.5 °F 39.5 °F 29.95 in Calm     96% 0.01 in 35 W/m2
09:49 40.6 °F 39.5 °F 29.95 in Calm     96% 0.01 in 33 W/m2
09:54 40.6 °F 39.6 °F 29.96 in Calm     96% 0.01 in 28 W/m2
09:59 40.7 °F 39.6 °F 29.96 in Calm     96% 0.01 in 25 W/m2
10:04 40.7 °F 39.6 °F 29.96 in Calm     96% 0.01 in 26 W/m2
10:09 40.7 °F 39.7 °F 29.95 in Calm     96% 0.01 in 32 W/m2
10:14 40.8 °F 39.7 °F 29.95 in Calm     96% 0.01 in 35 W/m2
10:19 40.8 °F 39.8 °F 29.95 in Calm     96% 0.01 in 51 W/m2
10:24 40.8 °F 39.8 °F 29.94 in Calm     96% 0.01 in 56 W/m2
10:29 40.9 °F 39.8 °F 29.94 in Calm     96% 0.01 in 53 W/m2
10:34 41 °F 39.9 °F 29.94 in Calm     96% 0.01 in 54 W/m2
10:39 41.1 °F 40.1 °F 29.94 in Calm     96% 0.00 in 49 W/m2
10:44 41.2 °F 40.2 °F 29.94 in Calm     96% 0.00 in 62 W/m2
10:49 41.2 °F 40.2 °F 29.93 in Calm     96% 0.00 in 62 W/m2
10:54 41.3 °F 40.2 °F 29.93 in Calm     96% 0.00 in 58 W/m2
10:59 41.4 °F 40.3 °F 29.93 in Calm     96% 0.00 in 69 W/m2
11:04 41.4 °F 40.4 °F 29.93 in Calm     96% 0.00 in 81 W/m2
11:09 41.5 °F 40.5 °F 29.93 in Calm     96% 0.00 in 74 W/m2
11:14 41.6 °F 40.5 °F 29.93 in Calm     96% 0.00 in 83 W/m2
11:19 41.7 °F 40.6 °F 29.93 in Calm     96% 0.00 in 72 W/m2
11:24 41.7 °F 40.7 °F 29.93 in Calm     96% 0.00 in 51 W/m2
11:29 41.8 °F 40.8 °F 29.93 in Calm     96% 0.00 in 51 W/m2
11:34 41.8 °F 40.8 °F 29.93 in Calm     96% 0.00 in 77 W/m2
11:39 41.9 °F 40.9 °F 29.92 in Calm     96% 0.00 in 127 W/m2
11:44 42 °F 41 °F 29.92 in Calm     96% 0.00 in 158 W/m2
11:49 42.1 °F 41.1 °F 29.92 in Calm     96% 0.00 in 156 W/m2
11:54 42.3 °F 41.2 °F 29.92 in Calm     96% 0.00 in 142 W/m2
11:59 42.4 °F 41.4 °F 29.91 in Calm     96% 0.00 in 174 W/m2
12:00 42.5 °F 41.4 °F 29.91 in Calm     96% 0.00 in 174 W/m2
12:09 42.9 °F 42.1 °F 29.91 in Calm     97% 0.00 in 146 W/m2
12:14 43.1 °F 42.2 °F 29.91 in Calm     96.6% 0.00 in 142 W/m2
12:19 43.2 °F 42.1 °F 29.91 in Calm     96% 0.00 in 114 W/m2
12:24 43.3 °F 42.2 °F 29.91 in Calm     96% 0.00 in 111 W/m2
12:29 43.3 °F 42.3 °F 29.90 in Calm     96% 0.00 in 127 W/m2
12:34 43.4 °F 42.5 °F 29.91 in Calm     96.6% 0.00 in 127 W/m2
12:39 43.6 °F 42.6 °F 29.91 in Calm     96% 0.00 in 132 W/m2
12:44 43.8 °F 42.9 °F 29.90 in NE 0.9 mph 4 mph 96.3% 0.00 in 134 W/m2
12:49 44 °F 43.2 °F 29.90 in Calm   4 mph 97% 0.00 in 174 W/m2
12:54 44.2 °F 43.2 °F 29.90 in Calm   4 mph 96.4% 0.00 in 141 W/m2
12:59 44.1 °F 43 °F 29.90 in NE 0.2 mph 4 mph 96% 0.00 in 134 W/m2
13:04 44 °F 42.9 °F 29.90 in NE 0.1 mph 4 mph 96% 0.00 in 142 W/m2
13:09 44 °F 42.9 °F 29.90 in Calm   2 mph 96% 0.00 in 163 W/m2
13:14 43.9 °F 42.9 °F 29.89 in NE 0.2 mph 2 mph 96% 0.00 in 113 W/m2
13:19 44 °F 42.9 °F 29.89 in Calm   2 mph 96% 0.00 in 109 W/m2
13:24 43.9 °F 42.8 °F 29.89 in Calm   2 mph 96% 0.00 in 128 W/m2
13:29 43.9 °F 42.8 °F 29.90 in Calm   2 mph 96% 0.00 in 97 W/m2
13:34 44 °F 42.7 °F 29.90 in Calm   2 mph 95.1% 0.00 in 90 W/m2
13:39 44.1 °F 43 °F 29.89 in Calm     95.9% 0.00 in 81 W/m2
13:44 44.1 °F 42.8 °F 29.89 in Calm     95.1% 0.00 in 90 W/m2
13:49 44.2 °F 42.8 °F 29.89 in Calm     95% 0.00 in 100 W/m2
13:54 44.3 °F 42.9 °F 29.89 in Calm     95% 0.00 in 93 W/m2
13:59 44.3 °F 43 °F 29.89 in Calm     95% 0.00 in 98 W/m2
14:04 44.3 °F 43 °F 29.89 in NE 0.2 mph 3 mph 95% 0.00 in 107 W/m2
14:09 44.4 °F 43 °F 29.89 in Calm   3 mph 95% 0.00 in 105 W/m2
14:14 44.5 °F 43.1 °F 29.89 in Calm   3 mph 95% 0.00 in 109 W/m2
14:19 44.5 °F 42.9 °F 29.88 in Calm   3 mph 94.2% 0.00 in 79 W/m2
14:24 44.6 °F 43 °F 29.89 in Calm   3 mph 94% 0.00 in 72 W/m2
14:29 44.7 °F 43 °F 29.89 in Calm   3 mph 94% 0.00 in 47 W/m2
14:34 44.7 °F 43.1 °F 29.89 in Calm   3 mph 94% 0.00 in 42 W/m2
14:39 44.7 °F 43.1 °F 29.89 in Calm     94% 0.00 in 42 W/m2
14:44 44.8 °F 43.2 °F 29.89 in Calm     94% 0.00 in 39 W/m2
14:49 44.8 °F 43 °F 29.89 in Calm     93.3% 0.00 in 39 W/m2
14:54 44.8 °F 42.9 °F 29.89 in Calm     93% 0.00 in 42 W/m2
14:59 44.7 °F 42.8 °F 29.89 in Calm     93% 0.00 in 46 W/m2
15:04 44.7 °F 42.8 °F 29.89 in Calm     93% 0.00 in 40 W/m2
15:09 44.7 °F 42.8 °F 29.89 in Calm     93% 0.00 in 26 W/m2
15:14 44.8 °F 42.9 °F 29.90 in Calm     93% 0.00 in 21 W/m2
15:19 44.8 °F 42.9 °F 29.89 in Calm     93% 0.00 in 21 W/m2
15:24 44.8 °F 42.9 °F 29.89 in Calm     93% 0.00 in 30 W/m2
15:29 44.8 °F 42.9 °F 29.89 in Calm     93% 0.00 in 30 W/m2
15:34 44.8 °F 42.9 °F 29.89 in Calm     93% 0.00 in 25 W/m2
15:39 44.8 °F 42.9 °F 29.89 in Calm     93% 0.00 in 32 W/m2
15:44 44.8 °F 42.9 °F 29.89 in Calm     93% 0.00 in 30 W/m2
15:49 44.8 °F 42.9 °F 29.89 in Calm     93% 0.00 in 21 W/m2
15:54 44.8 °F 42.9 °F 29.89 in Calm     93% 0.00 in 14 W/m2
15:59 44.8 °F 42.9 °F 29.89 in Calm     93% 0.00 in 11 W/m2
16:00 44.8 °F 42.9 °F 29.89 in Calm     93% 0.00 in 9 W/m2
16:09 44.8 °F 42.8 °F 29.89 in Calm     92.7% 0.00 in 5 W/m2
16:14 44.7 °F 42.5 °F 29.89 in Calm     92% 0.00 in 5 W/m2
16:19 44.7 °F 42.5 °F 29.88 in Calm     92% 0.00 in 0 W/m2
16:24 44.6 °F 42.4 °F 29.89 in Calm     92% 0.00 in 0 W/m2
16:29 44.6 °F 42.4 °F 29.88 in Calm     92% 0.00 in 0 W/m2
16:34 44.5 °F 42.4 °F 29.88 in Calm     92% 0.00 in 0 W/m2
16:39 44.5 °F 42.5 °F 29.88 in Calm     92.7% 0.00 in 0 W/m2
16:44 44.5 °F 42.6 °F 29.89 in Calm     93% 0.00 in 0 W/m2
16:49 44.4 °F 42.5 °F 29.89 in Calm     93% 0.00 in 0 W/m2
16:54 44.4 °F 42.5 °F 29.89 in Calm     93% 0.00 in 0 W/m2
16:59 44.4 °F 42.5 °F 29.89 in Calm     93% 0.00 in 0 W/m2
17:04 44.4 °F 42.5 °F 29.89 in Calm     93% 0.00 in 0 W/m2
17:09 44.4 °F 42.5 °F 29.89 in Calm     93% 0.00 in 0 W/m2
17:14 44.4 °F 42.5 °F 29.90 in Calm     93% 0.00 in 0 W/m2
17:19 44.4 °F 42.5 °F 29.90 in Calm     93% 0.00 in 0 W/m2
17:24 44.4 °F 42.5 °F 29.90 in Calm     93% 0.00 in 0 W/m2
17:29 44.4 °F 42.5 °F 29.89 in Calm     93% 0.00 in 0 W/m2
17:34 44.4 °F 42.5 °F 29.90 in Calm     93% 0.00 in 0 W/m2
17:39 44.4 °F 42.5 °F 29.90 in Calm     93% 0.00 in 0 W/m2
17:44 44.4 °F 42.5 °F 29.90 in Calm     93% 0.00 in 0 W/m2
17:49 44.4 °F 42.5 °F 29.91 in Calm     93% 0.00 in 0 W/m2
17:54 44.4 °F 42.5 °F 29.91 in Calm     93% 0.00 in 0 W/m2
17:59 44.4 °F 42.5 °F 29.91 in Calm     93% 0.00 in 0 W/m2
18:04 44.4 °F 42.5 °F 29.91 in Calm     93% 0.00 in 0 W/m2
18:09 44.4 °F 42.5 °F 29.92 in Calm     93% 0.00 in 0 W/m2
18:14 44.3 °F 42.4 °F 29.92 in Calm     93% 0.00 in 0 W/m2
18:19 44.3 °F 42.4 °F 29.92 in Calm     93% 0.00 in 0 W/m2
18:24 44.3 °F 42.4 °F 29.92 in Calm     93% 0.00 in 0 W/m2
18:29 44.3 °F 42.4 °F 29.92 in Calm     93% 0.00 in 0 W/m2
18:34 44.3 °F 42.4 °F 29.92 in Calm     93% 0.00 in 0 W/m2
18:39 44.3 °F 42.6 °F 29.92 in Calm     93.6% 0.00 in 0 W/m2
18:44 44.3 °F 42.7 °F 29.92 in Calm     94% 0.00 in 0 W/m2
18:49 44.3 °F 42.7 °F 29.92 in Calm     94% 0.00 in 0 W/m2
18:54 44.2 °F 42.6 °F 29.92 in Calm     94% 0.00 in 0 W/m2
18:59 44.2 °F 42.6 °F 29.92 in Calm     94% 0.00 in 0 W/m2
19:04 44.2 °F 42.6 °F 29.92 in Calm     94% 0.00 in 0 W/m2
19:09 44.2 °F 42.6 °F 29.92 in Calm     94% 0.00 in 0 W/m2
19:14 44.2 °F 42.6 °F 29.92 in Calm     94% 0.00 in 0 W/m2
19:19 44.2 °F 42.6 °F 29.92 in Calm     94% 0.00 in 0 W/m2
19:24 44.2 °F 42.6 °F 29.92 in Calm     94% 0.00 in 0 W/m2
19:29 44.2 °F 42.6 °F 29.92 in Calm     94% 0.00 in 0 W/m2
19:34 44.1 °F 42.5 °F 29.92 in Calm     94% 0.00 in 0 W/m2
19:39 44.1 °F 42.5 °F 29.92 in Calm     94% 0.00 in 0 W/m2
19:44 44.1 °F 42.5 °F 29.92 in Calm     94% 0.00 in 0 W/m2
19:49 44.1 °F 42.5 °F 29.92 in Calm     94% 0.00 in 0 W/m2
19:54 44.1 °F 42.5 °F 29.92 in Calm     94% 0.00 in 0 W/m2
19:59 44.1 °F 42.5 °F 29.91 in Calm     94% 0.00 in 0 W/m2
20:00 44.1 °F 42.5 °F 29.91 in Calm     94% 0.00 in 0 W/m2
20:09 44.1 °F 42.5 °F 29.91 in Calm     94% 0.00 in 0 W/m2
20:14 44.1 °F 42.5 °F 29.91 in Calm     94% 0.00 in 0 W/m2
20:19 44.1 °F 42.5 °F 29.91 in Calm     94% 0.00 in 0 W/m2
20:24 44.1 °F 42.5 °F 29.91 in Calm     94% 0.01 in 0 W/m2
20:29 44.1 °F 42.5 °F 29.91 in Calm     94% 0.01 in 0 W/m2
20:34 44 °F 42.4 °F 29.92 in Calm     94% 0.01 in 0 W/m2
20:39 44 °F 42.4 °F 29.92 in Calm     94% 0.01 in 0 W/m2
20:44 44 °F 42.4 °F 29.92 in Calm     94% 0.01 in 0 W/m2
20:49 44 °F 42.4 °F 29.92 in Calm     94% 0.01 in 0 W/m2
20:54 44 °F 42.6 °F 29.92 in Calm     94.7% 0.01 in 0 W/m2
20:59 44 °F 42.6 °F 29.92 in Calm     95% 0.01 in 0 W/m2
21:04 43.9 °F 42.6 °F 29.92 in Calm     95% 0.01 in 0 W/m2
21:09 43.9 °F 42.6 °F 29.92 in Calm     95% 0.01 in 0 W/m2
21:14 43.9 °F 42.6 °F 29.92 in Calm     95% 0.01 in 0 W/m2
21:19 43.9 °F 42.5 °F 29.92 in Calm     95% 0.01 in 0 W/m2
21:24 43.8 °F 42.5 °F 29.92 in Calm     95% 0.01 in 0 W/m2
21:29 43.8 °F 42.5 °F 29.92 in Calm     95% 0.01 in 0 W/m2
21:34 43.8 °F 42.5 °F 29.91 in Calm     95% 0.01 in 0 W/m2
21:39 43.8 °F 42.5 °F 29.91 in Calm     95% 0.00 in 0 W/m2
21:44 43.8 °F 42.5 °F 29.91 in Calm     95% 0.00 in 0 W/m2
21:49 43.8 °F 42.5 °F 29.91 in Calm     95% 0.00 in 0 W/m2
21:54 43.8 °F 42.5 °F 29.91 in Calm     95% 0.00 in 0 W/m2
21:59 43.8 °F 42.5 °F 29.91 in Calm     95% 0.00 in 0 W/m2
22:04 43.8 °F 42.5 °F 29.91 in Calm     95% 0.01 in 0 W/m2
22:09 43.8 °F 42.5 °F 29.91 in Calm     95% 0.01 in 0 W/m2
22:14 43.8 °F 42.5 °F 29.91 in Calm     95% 0.01 in 0 W/m2
22:19 43.8 °F 42.5 °F 29.91 in Calm     95% 0.01 in 0 W/m2
22:24 43.8 °F 42.5 °F 29.92 in Calm     95% 0.01 in 0 W/m2
22:29 43.8 °F 42.5 °F 29.92 in Calm     95% 0.01 in 0 W/m2
22:34 43.8 °F 42.5 °F 29.91 in Calm     95% 0.01 in 0 W/m2
22:39 43.8 °F 42.5 °F 29.92 in Calm     95% 0.02 in 0 W/m2
22:44 43.8 °F 42.5 °F 29.92 in Calm     95% 0.02 in 0 W/m2
22:49 43.7 °F 42.4 °F 29.92 in Calm     95% 0.02 in 0 W/m2
22:54 43.7 °F 42.4 °F 29.92 in Calm     95% 0.02 in 0 W/m2
22:59 43.7 °F 42.4 °F 29.92 in Calm     95% 0.02 in 0 W/m2
23:00 43.7 °F 42.4 °F 29.91 in Calm     95% 0.02 in 0 W/m2
23:09 43.7 °F 42.4 °F 29.91 in Calm     95% 0.02 in 0 W/m2
23:14 43.7 °F 42.4 °F 29.91 in Calm     95% 0.02 in 0 W/m2
23:19 43.7 °F 42.3 °F 29.91 in Calm     95% 0.02 in 0 W/m2
23:24 43.7 °F 42.3 °F 29.91 in Calm     95% 0.02 in 0 W/m2
23:29 43.7 °F 42.3 °F 29.91 in Calm     95% 0.02 in 0 W/m2
23:34 43.6 °F 42.3 °F 29.90 in Calm     95% 0.02 in 0 W/m2
23:39 43.6 °F 42.3 °F 29.90 in Calm     95% 0.01 in 0 W/m2
23:44 43.6 °F 42.3 °F 29.90 in Calm     95% 0.01 in 0 W/m2
23:49 43.6 °F 42.3 °F 29.90 in Calm     95% 0.01 in 0 W/m2
23:54 43.6 °F 42.3 °F 29.90 in Calm     95% 0.01 in 0 W/m2
23:59 43.6 °F 42.3 °F 29.90 in Calm     95% 0.01 in 0 W/m2
Hartford County Weather
Compliments of Weather Underground - 2 mb